Manns Choice, PA (15550)

6:50 AM EDT on August 24, 2016 (GMT -0400)
Lakewood Manor | | Change Station

Elev 1178 ft 40.04 °N, 78.52 °W | Updated 3 minutes ago

Fog
Fog
55.0 °F
Feels Like 55.0 °F
N
0.0
Wind Variable Wind from NNW

Today
High -- | Low -- °F
--% Chance of Precip.
Yesterday
High -- | Low -- °F
Precip. -- in
Pressure 30.31 in
Visibility 0.2 miles
Clouds Overcast 300 ft
Dew Point 55 °F
Humidity 99%
Rainfall 0.00 in
Snow Depth Not available.
6:35 AM 7:57 PM
Waning Gibbous, 58% visible
METAR KHMZ 241035Z AUTO 00000KT 1/4SM FG OVC003 13/12 A3031 RMK AO2 T01250121
Pressure 30.31 in
Visibility 0.2 miles
Clouds Overcast 300 ft
Dew Point 55 °F
Humidity 99%
Rainfall 0.00 in
Snow Depth Not available.
6:35 AM 7:57 PM
Waning Gibbous, 58% visible
METAR KHMZ 241035Z AUTO 00000KT 1/4SM FG OVC003 13/12 A3031 RMK AO2 T01250121

10-Day Weather Forecast

Almanac

Astronomy

Aug. 24, 2016 Rise Set
Actual Time
Civil Twilight
Nautical Twilight
Astronomical Twilight
Moon
Length of Visible Light
Length of Day
Tomorrow will be .
, % of the Moon is Illuminated

Today's Extremes

State Highs State Lows

Community

WunderPhotos

Upload Photos

1,934,562 photos uploaded!

WunderBlog® & News

Nearby

Air Quality

  Air Quality AQ Index Pollutant
Not available.

Snow Depth

Station Depth Elevation

Earthquake Activity

City Distance Mag. Time & Date
Minimum magnitude displayed is 2.5.

Coastal Water Temperatures

Place Temperature

Stations

Nearby Weather Stations

Station Location Temp. Windchill Dew Point Humidity Wind Precip. Elev Updated Type
                   

Watches & Warnings

There are currently no watches in effect.